createdAt,value
2017-09-04T00:00:06.357Z,14.23
2017-09-04T00:02:33.934Z,15.73
2017-09-04T00:05:01.489Z,15.50
2017-09-04T00:07:29.054Z,15.93
2017-09-04T00:09:56.615Z,14.83
2017-09-04T00:12:25.159Z,15.43
2017-09-04T00:14:52.712Z,16.00
2017-09-04T00:17:20.297Z,13.90
2017-09-04T00:19:47.854Z,16.77
2017-09-04T00:22:16.303Z,16.30
2017-09-04T00:24:43.872Z,16.83
2017-09-04T00:27:11.419Z,16.07
2017-09-04T00:29:38.957Z,14.90
2017-09-04T00:32:06.527Z,16.33
2017-09-04T00:34:34.078Z,15.47
2017-09-04T00:37:01.621Z,16.20
2017-09-04T00:39:29.208Z,14.40
2017-09-04T00:41:56.745Z,14.50
2017-09-04T00:44:24.298Z,15.13
2017-09-04T00:46:51.884Z,15.03
2017-09-04T00:49:19.434Z,15.63
2017-09-04T00:51:46.972Z,15.57
2017-09-04T00:54:14.552Z,15.60
2017-09-04T00:56:42.084Z,15.27
2017-09-04T00:59:09.632Z,16.53
2017-09-04T01:01:37.211Z,15.00
2017-09-04T01:04:04.755Z,14.60
2017-09-04T01:06:32.311Z,16.37
2017-09-04T01:08:59.869Z,16.57
2017-09-04T01:11:27.418Z,15.13
2017-09-04T01:13:54.960Z,15.10
2017-09-04T01:16:23.280Z,15.67
2017-09-04T01:18:50.809Z,14.93
2017-09-04T01:21:18.345Z,16.80
2017-09-04T01:23:45.922Z,15.07
2017-09-04T01:26:13.473Z,16.10
2017-09-04T01:28:41.023Z,17.80
2017-09-04T01:31:08.606Z,16.80
2017-09-04T01:33:36.149Z,15.57
2017-09-04T01:36:03.712Z,16.23
2017-09-04T01:38:31.301Z,16.10
2017-09-04T01:40:58.857Z,15.57
2017-09-04T01:43:26.398Z,14.53
2017-09-04T01:45:53.975Z,14.90
2017-09-04T01:48:21.525Z,15.57
2017-09-04T01:50:49.068Z,16.80
2017-09-04T01:53:16.650Z,16.17
2017-09-04T01:55:44.185Z,14.93
2017-09-04T01:58:11.726Z,15.40
2017-09-04T02:00:39.305Z,15.97
2017-09-04T02:03:06.868Z,15.13
2017-09-04T02:05:34.428Z,14.60
2017-09-04T02:08:02.013Z,14.63
2017-09-04T02:10:29.545Z,14.20
2017-09-04T02:12:57.094Z,12.90
2017-09-04T02:15:24.687Z,12.97
2017-09-04T02:17:52.225Z,13.40
2017-09-04T02:20:19.788Z,13.53
2017-09-04T02:22:47.360Z,12.80
2017-09-04T02:25:14.902Z,13.20
2017-09-04T02:27:42.454Z,12.30
2017-09-04T02:30:10.040Z,12.67
2017-09-04T02:32:37.603Z,11.87
2017-09-04T02:35:05.160Z,13.40
2017-09-04T02:37:32.742Z,12.20
2017-09-04T02:40:00.307Z,12.97
2017-09-04T02:42:27.855Z,13.47
2017-09-04T02:44:55.430Z,13.40
2017-09-04T02:47:22.988Z,13.20
2017-09-04T02:49:50.550Z,13.30
2017-09-04T02:52:18.116Z,15.73
2017-09-04T02:54:45.648Z,14.70
2017-09-04T02:57:13.176Z,13.77
2017-09-04T02:59:40.747Z,14.87
2017-09-04T03:02:08.289Z,13.70
2017-09-04T03:04:35.844Z,13.13
2017-09-04T03:07:04.176Z,12.50
2017-09-04T03:09:31.710Z,14.13
2017-09-04T03:11:59.255Z,14.17
2017-09-04T03:14:26.832Z,14.20
2017-09-04T03:16:54.391Z,13.37
2017-09-04T03:19:21.922Z,15.63
2017-09-04T03:21:49.507Z,14.43
2017-09-04T03:24:17.056Z,14.73
2017-09-04T03:26:44.596Z,14.90
2017-09-04T03:29:12.160Z,14.00
2017-09-04T03:31:39.717Z,14.63
2017-09-04T03:34:07.274Z,16.23
2017-09-04T03:36:34.858Z,13.57
2017-09-04T03:39:02.425Z,15.13
2017-09-04T03:41:30.007Z,13.10
2017-09-04T03:43:57.580Z,14.10
2017-09-04T03:46:25.132Z,13.43
2017-09-04T03:48:52.703Z,15.00
2017-09-04T03:51:20.273Z,16.27
2017-09-04T03:53:47.848Z,13.60
2017-09-04T03:56:15.386Z,14.10
2017-09-04T03:58:42.968Z,14.25
2017-09-04T04:01:10.521Z,16.03
2017-09-04T04:03:38.071Z,13.67
2017-09-04T04:06:05.641Z,13.50
2017-09-04T04:08:33.185Z,15.25
2017-09-04T04:11:00.725Z,14.73
2017-09-04T04:13:28.301Z,14.40
2017-09-04T04:15:55.848Z,14.80
2017-09-04T04:18:23.407Z,14.45
2017-09-04T04:20:50.990Z,13.87
2017-09-04T04:23:18.549Z,15.65
2017-09-04T04:25:46.100Z,14.05
2017-09-04T04:28:13.683Z,14.57
2017-09-04T04:30:41.243Z,13.77
2017-09-04T04:33:08.799Z,13.13
2017-09-04T04:35:36.383Z,13.52
2017-09-04T04:38:03.943Z,12.98
2017-09-04T04:40:31.481Z,12.95
2017-09-04T04:42:59.069Z,12.55
2017-09-04T04:45:26.630Z,13.10
2017-09-04T04:47:54.169Z,12.68
2017-09-04T04:50:21.737Z,14.65
2017-09-04T04:52:49.291Z,13.05
2017-09-04T04:55:16.824Z,14.10
2017-09-04T04:57:44.411Z,13.25
2017-09-04T05:00:11.970Z,13.00
2017-09-04T05:02:39.510Z,13.55
2017-09-04T05:05:07.092Z,13.93
2017-09-04T05:07:34.651Z,13.40
2017-09-04T05:10:02.219Z,12.85
2017-09-04T05:12:29.812Z,13.27
2017-09-04T05:14:57.355Z,13.38
2017-09-04T05:17:24.925Z,13.27
2017-09-04T05:19:52.510Z,13.98
2017-09-04T05:22:20.056Z,13.95
2017-09-04T05:24:47.619Z,13.35
2017-09-04T05:27:15.214Z,13.07
2017-09-04T05:29:42.758Z,13.07
2017-09-04T05:32:10.319Z,11.40
2017-09-04T05:34:37.885Z,12.70
2017-09-04T05:37:05.436Z,11.80
2017-09-04T05:39:32.994Z,11.80
2017-09-04T05:42:00.561Z,13.00
2017-09-04T05:44:28.116Z,12.23
2017-09-04T05:46:55.696Z,12.43
2017-09-04T05:49:23.283Z,12.00
2017-09-04T05:51:50.824Z,12.03
2017-09-04T05:54:18.374Z,12.50
2017-09-04T05:56:45.974Z,11.93
2017-09-04T05:59:13.523Z,12.00
2017-09-04T06:01:41.077Z,12.17
2017-09-04T06:04:08.754Z,14.50
2017-09-04T06:06:36.330Z,11.20
2017-09-04T06:09:03.888Z,10.57
2017-09-04T06:11:31.480Z,12.43
2017-09-04T06:13:59.024Z,11.90
2017-09-04T06:16:26.584Z,12.50
2017-09-04T06:18:54.149Z,11.80
2017-09-04T06:21:21.708Z,11.87
2017-09-04T06:23:49.245Z,12.90
2017-09-04T06:26:16.835Z,12.90
2017-09-04T06:28:44.373Z,11.80
2017-09-04T06:31:11.915Z,12.30
2017-09-04T06:33:39.484Z,11.10
2017-09-04T06:36:07.025Z,11.50
2017-09-04T06:38:34.585Z,12.10
2017-09-04T06:41:02.153Z,10.57
2017-09-04T06:43:29.689Z,10.20
2017-09-04T06:45:57.259Z,11.00
2017-09-04T06:48:24.827Z,11.30
2017-09-04T06:50:52.375Z,10.50
2017-09-04T06:53:19.936Z,10.97
2017-09-04T06:55:47.519Z,12.43
2017-09-04T06:58:15.061Z,10.93
2017-09-04T07:00:42.617Z,11.00
2017-09-04T07:03:10.194Z,11.00
2017-09-04T07:05:37.748Z,11.47
2017-09-04T07:08:05.308Z,9.60
2017-09-04T07:10:32.873Z,11.13
2017-09-04T07:13:00.450Z,11.17
2017-09-04T07:15:28.006Z,11.53
2017-09-04T07:17:55.590Z,11.27
2017-09-04T07:20:23.156Z,12.67
2017-09-04T07:22:50.795Z,12.50
2017-09-04T07:25:18.362Z,12.40
2017-09-04T07:27:45.909Z,11.57
2017-09-04T07:30:13.471Z,11.23
2017-09-04T07:32:41.061Z,12.60
2017-09-04T07:35:08.612Z,12.80
2017-09-04T07:37:36.153Z,12.67
2017-09-04T07:40:03.743Z,12.83
2017-09-04T07:42:31.284Z,13.93
2017-09-04T07:44:58.812Z,12.00
2017-09-04T07:47:26.380Z,13.00
2017-09-04T07:49:53.974Z,11.63
2017-09-04T07:52:21.523Z,12.10
2017-09-04T07:54:49.094Z,12.87
2017-09-04T07:57:16.634Z,12.90
2017-09-04T07:59:44.190Z,12.40
2017-09-04T08:02:11.777Z,13.27
2017-09-04T08:04:39.327Z,12.40
2017-09-04T08:07:06.892Z,13.50
2017-09-04T08:09:34.495Z,12.67
2017-09-04T08:12:02.049Z,12.13
2017-09-04T08:14:29.843Z,12.43
2017-09-04T08:16:57.424Z,12.27
2017-09-04T08:19:25.982Z,11.80
2017-09-04T08:21:53.546Z,11.33
2017-09-04T08:24:21.142Z,12.23
2017-09-04T08:26:48.682Z,10.90
2017-09-04T08:29:16.280Z,11.03
2017-09-04T08:31:43.878Z,10.30
2017-09-04T08:34:11.427Z,12.30
2017-09-04T08:36:38.986Z,12.03
2017-09-04T08:39:06.635Z,12.27
2017-09-04T08:41:34.226Z,12.97
2017-09-04T08:44:01.794Z,12.60
2017-09-04T08:46:29.368Z,12.70
2017-09-04T08:48:56.962Z,13.03
2017-09-04T08:51:24.493Z,14.10
2017-09-04T08:53:52.079Z,11.90
2017-09-04T08:56:19.621Z,12.33
2017-09-04T08:58:47.157Z,12.20
2017-09-04T09:01:14.766Z,11.20
2017-09-04T09:03:42.326Z,12.17
2017-09-04T09:06:09.890Z,10.47
2017-09-04T09:08:37.458Z,12.13
2017-09-04T09:11:04.997Z,11.13
2017-09-04T09:13:32.533Z,10.53
2017-09-04T09:16:00.101Z,12.10
2017-09-04T09:18:27.656Z,11.63
2017-09-04T09:20:55.192Z,12.00
2017-09-04T09:23:22.776Z,9.93
2017-09-04T09:25:50.341Z,10.83
2017-09-04T09:28:17.897Z,10.83
2017-09-04T09:30:45.462Z,11.10
2017-09-04T09:33:12.994Z,8.80
2017-09-04T09:35:40.522Z,9.80
2017-09-04T09:38:08.085Z,8.70
2017-09-04T09:40:35.632Z,7.90
2017-09-04T09:43:03.158Z,10.13
2017-09-04T09:45:30.746Z,10.23
2017-09-04T09:47:58.298Z,9.37
2017-09-04T09:50:25.842Z,8.73
2017-09-04T09:52:53.403Z,7.53
2017-09-04T09:55:20.920Z,8.10
2017-09-04T09:57:48.467Z,7.80
2017-09-04T10:00:16.035Z,8.97
2017-09-04T10:02:44.494Z,12.70
2017-09-04T10:05:12.152Z,9.00
2017-09-04T10:07:39.917Z,8.43
2017-09-04T10:10:07.674Z,8.83
2017-09-04T10:12:35.243Z,8.07
2017-09-04T10:15:03.043Z,7.60
2017-09-04T10:17:30.754Z,6.90
2017-09-04T10:19:58.463Z,5.60
2017-09-04T10:22:26.196Z,5.97
2017-09-04T10:24:53.968Z,6.00
2017-09-04T10:27:21.669Z,5.90
2017-09-04T10:29:49.345Z,5.00
2017-09-04T10:32:17.057Z,5.03
2017-09-04T10:34:44.739Z,4.20
2017-09-04T10:37:13.281Z,4.10
2017-09-04T10:39:40.996Z,4.00
2017-09-04T10:42:08.666Z,5.03
2017-09-04T10:44:36.308Z,4.47
2017-09-04T10:47:03.974Z,3.60
2017-09-04T10:49:31.727Z,4.30
2017-09-04T10:51:59.461Z,4.70
2017-09-04T10:54:27.161Z,4.90
2017-09-04T10:56:54.846Z,5.23
2017-09-04T10:59:22.426Z,4.90
2017-09-04T11:01:49.970Z,4.23
2017-09-04T11:04:17.526Z,4.40
2017-09-04T11:06:45.104Z,3.70
2017-09-04T11:09:12.638Z,3.40
2017-09-04T11:11:40.181Z,4.10
2017-09-04T11:14:07.737Z,3.67
2017-09-04T11:16:35.264Z,3.80
2017-09-04T11:19:02.791Z,3.83
2017-09-04T11:21:31.112Z,3.70
2017-09-04T11:23:58.666Z,3.80
2017-09-04T11:26:26.221Z,3.40
2017-09-04T11:28:53.794Z,4.00
2017-09-04T11:31:22.160Z,3.83
2017-09-04T11:33:49.699Z,4.10
2017-09-04T11:36:17.262Z,3.33
2017-09-04T11:38:44.801Z,3.03
2017-09-04T11:41:12.348Z,3.83
2017-09-04T11:43:39.919Z,3.60
2017-09-04T11:46:07.464Z,3.27
2017-09-04T11:48:35.005Z,3.07
2017-09-04T11:51:03.331Z,3.20
2017-09-04T11:53:30.871Z,3.50
2017-09-04T11:55:58.405Z,3.17
2017-09-04T11:58:26.772Z,3.30
2017-09-04T12:00:54.294Z,3.60
2017-09-04T12:03:21.833Z,3.90
2017-09-04T12:05:49.424Z,2.90
2017-09-04T12:08:16.977Z,3.63
2017-09-04T12:10:44.518Z,3.60
2017-09-04T12:13:12.093Z,4.23
2017-09-04T12:15:39.618Z,4.10
2017-09-04T12:18:07.163Z,3.60
2017-09-04T12:20:34.726Z,3.43
2017-09-04T12:23:02.275Z,3.50
2017-09-04T12:25:29.824Z,3.37
2017-09-04T12:27:57.398Z,3.80
2017-09-04T12:30:24.946Z,5.50
2017-09-04T12:32:52.542Z,3.90
2017-09-04T12:35:20.100Z,3.70
2017-09-04T12:37:47.658Z,3.80
2017-09-04T12:40:15.208Z,3.97
2017-09-04T12:42:42.770Z,3.20
2017-09-04T12:45:10.328Z,3.53
2017-09-04T12:47:37.853Z,4.00
2017-09-04T12:50:05.433Z,3.60
2017-09-04T12:52:32.973Z,3.57
2017-09-04T12:55:00.504Z,4.40
2017-09-04T12:57:28.086Z,3.70
2017-09-04T12:59:55.641Z,2.97
2017-09-04T13:02:23.192Z,3.20
2017-09-04T13:04:50.762Z,3.07
2017-09-04T13:07:18.317Z,3.70
2017-09-04T13:09:46.618Z,3.67
2017-09-04T13:12:21.945Z,4.20
2017-09-04T13:15:00.059Z,3.33
2017-09-04T13:17:33.538Z,4.07
2017-09-04T13:20:06.875Z,3.13
2017-09-04T13:25:51.680Z,3.07
2017-09-04T13:28:24.896Z,3.20
2017-09-04T13:30:58.069Z,3.17
2017-09-04T13:33:31.322Z,4.03
2017-09-04T13:36:04.648Z,4.20
2017-09-04T13:38:37.812Z,3.30
2017-09-04T13:41:11.161Z,3.30
2017-09-04T13:43:44.348Z,3.60
2017-09-04T13:46:17.510Z,3.50
2017-09-04T13:48:50.645Z,4.00
2017-09-04T13:54:34.485Z,4.17
2017-09-04T13:57:07.660Z,4.43
2017-09-04T13:59:40.779Z,3.73
2017-09-04T14:05:27.317Z,4.27
2017-09-04T14:11:01.380Z,3.83
2017-09-04T14:13:34.544Z,4.47
2017-09-04T14:16:07.601Z,4.00
2017-09-04T14:18:35.124Z,4.70
2017-09-04T14:21:02.654Z,3.87
2017-09-04T14:23:30.234Z,3.97
2017-09-04T14:25:57.785Z,4.00
2017-09-04T14:28:25.335Z,3.73
2017-09-04T14:30:52.889Z,4.13
2017-09-04T14:33:20.414Z,4.53
2017-09-04T14:35:47.944Z,3.97
2017-09-04T14:38:15.514Z,4.07
2017-09-04T14:40:43.045Z,4.33
2017-09-04T14:43:16.464Z,4.87
2017-09-04T14:46:00.705Z,4.70
2017-09-04T14:48:34.030Z,4.80
2017-09-04T14:51:01.576Z,4.40
2017-09-04T14:53:29.105Z,4.40
2017-09-04T14:55:56.684Z,4.40
2017-09-04T14:58:24.210Z,5.10
2017-09-04T15:00:51.766Z,4.53
2017-09-04T15:03:19.318Z,4.67
2017-09-04T15:05:46.883Z,4.33
2017-09-04T15:08:14.442Z,5.30
2017-09-04T15:10:42.029Z,5.03
2017-09-04T15:13:09.579Z,5.33
2017-09-04T15:15:37.119Z,5.67
2017-09-04T15:18:04.695Z,4.50
2017-09-04T15:20:32.235Z,5.20
2017-09-04T15:22:59.779Z,5.27
2017-09-04T15:25:27.357Z,4.30
2017-09-04T15:27:54.884Z,5.30
2017-09-04T15:30:22.429Z,4.80
2017-09-04T15:32:49.985Z,5.23
2017-09-04T15:35:17.513Z,5.77
2017-09-04T15:37:45.046Z,4.90
2017-09-04T15:40:12.605Z,4.50
2017-09-04T15:42:40.144Z,5.10
2017-09-04T15:45:07.686Z,4.33
2017-09-04T15:47:35.245Z,4.10
2017-09-04T15:50:02.788Z,5.73
2017-09-04T15:52:30.341Z,5.23
2017-09-04T15:54:57.921Z,3.90
2017-09-04T15:57:25.441Z,4.33
2017-09-04T15:59:53.000Z,6.50
2017-09-04T16:02:20.561Z,5.20
2017-09-04T16:04:48.112Z,4.53
2017-09-04T16:07:25.588Z,4.50
2017-09-04T16:09:53.122Z,4.67
2017-09-04T16:12:25.515Z,4.50
2017-09-04T16:14:53.845Z,4.57
2017-09-04T16:17:23.142Z,4.97
2017-09-04T16:19:51.703Z,4.07
2017-09-04T16:22:33.958Z,5.00
2017-09-04T16:25:01.521Z,4.43
2017-09-04T16:27:45.745Z,4.97
2017-09-04T16:30:14.120Z,4.50
2017-09-04T16:36:05.065Z,5.00
2017-09-04T16:38:48.301Z,3.80
2017-09-04T16:41:17.658Z,3.80
2017-09-04T16:43:47.102Z,3.90
2017-09-04T16:46:14.642Z,3.80
2017-09-04T16:51:43.868Z,5.50
2017-09-04T16:54:28.246Z,3.97
2017-09-04T16:56:56.419Z,5.07
2017-09-04T16:59:23.940Z,5.10
2017-09-04T17:01:51.516Z,5.60
2017-09-04T17:04:19.045Z,4.40
2017-09-04T17:06:46.610Z,4.67
2017-09-04T17:09:14.953Z,3.73
2017-09-04T17:11:42.952Z,4.70
2017-09-04T17:14:10.530Z,4.20
2017-09-04T17:16:40.832Z,4.20
2017-09-04T17:19:19.116Z,3.73
2017-09-04T17:25:00.917Z,3.93
2017-09-04T17:27:28.479Z,4.37
2017-09-04T17:29:56.009Z,4.27
2017-09-04T17:32:23.562Z,3.83
2017-09-04T17:34:51.146Z,4.87
2017-09-04T17:37:18.678Z,4.80
2017-09-04T17:39:46.212Z,4.67
2017-09-04T17:42:13.785Z,5.10
2017-09-04T17:44:41.341Z,4.33
2017-09-04T17:47:09.658Z,5.83
2017-09-04T17:49:37.252Z,4.87
2017-09-04T17:52:04.805Z,6.20
2017-09-04T17:54:32.354Z,5.47
2017-09-04T17:56:59.933Z,4.83
2017-09-04T17:59:27.488Z,5.30
2017-09-04T18:01:55.051Z,5.77
2017-09-04T18:04:22.627Z,5.87
2017-09-04T18:06:50.166Z,5.80
2017-09-04T18:09:17.697Z,7.33
2017-09-04T18:11:45.263Z,6.10
2017-09-04T18:14:12.788Z,5.90
2017-09-04T18:16:40.327Z,5.20
2017-09-04T18:19:07.902Z,5.67
2017-09-04T18:21:35.464Z,5.40
2017-09-04T18:24:03.017Z,5.23
2017-09-04T18:26:30.601Z,4.30
2017-09-04T18:28:58.148Z,5.13
2017-09-04T18:31:25.696Z,4.67
2017-09-04T18:33:53.264Z,4.57
2017-09-04T18:36:21.568Z,4.23
2017-09-04T18:38:49.106Z,4.20
2017-09-04T18:41:16.669Z,3.67
2017-09-04T18:43:44.215Z,4.00
2017-09-04T18:46:11.770Z,4.47
2017-09-04T18:48:39.350Z,4.13
2017-09-04T18:51:06.916Z,3.77
2017-09-04T18:53:34.458Z,3.97
2017-09-04T18:56:02.051Z,3.97
2017-09-04T18:58:29.604Z,3.60
2017-09-04T19:00:57.137Z,4.80
2017-09-04T19:03:24.699Z,4.53
2017-09-04T19:05:52.223Z,3.50
2017-09-04T19:08:19.778Z,4.03
2017-09-04T19:10:47.359Z,4.10
2017-09-04T19:13:14.898Z,3.80
2017-09-04T19:15:42.464Z,3.80
2017-09-04T19:18:10.041Z,3.80
2017-09-04T19:20:37.576Z,4.00
2017-09-04T19:23:05.138Z,4.70
2017-09-04T19:25:32.739Z,4.63
2017-09-04T19:28:00.298Z,3.87
2017-09-04T19:30:27.860Z,4.30
2017-09-04T19:32:55.435Z,4.60
2017-09-04T19:35:23.009Z,4.40
2017-09-04T19:37:50.569Z,4.87
2017-09-04T19:40:18.125Z,4.50
2017-09-04T19:42:45.711Z,4.37
2017-09-04T19:45:13.237Z,4.13
2017-09-04T19:47:40.798Z,4.57
2017-09-04T19:50:08.352Z,5.50
2017-09-04T19:52:35.925Z,5.10
2017-09-04T19:55:03.516Z,4.60
2017-09-04T19:57:31.045Z,4.35
2017-09-04T19:59:58.601Z,5.20
2017-09-04T20:02:26.175Z,5.00
2017-09-04T20:04:53.728Z,4.40
2017-09-04T20:07:21.266Z,5.30
2017-09-04T20:09:48.844Z,5.13
2017-09-04T20:12:16.395Z,5.20
2017-09-04T20:14:43.948Z,5.60
2017-09-04T20:17:11.536Z,4.93
2017-09-04T20:19:39.067Z,4.43
2017-09-04T20:22:06.613Z,5.30
2017-09-04T20:24:34.178Z,4.17
2017-09-04T20:27:01.721Z,5.30
2017-09-04T20:29:29.245Z,4.80
2017-09-04T20:31:56.821Z,4.80
2017-09-04T20:34:24.365Z,5.13
2017-09-04T20:36:51.888Z,5.80
2017-09-04T20:39:19.457Z,5.63
2017-09-04T20:41:47.010Z,5.53
2017-09-04T20:44:14.561Z,5.57
2017-09-04T20:46:42.125Z,4.90
2017-09-04T20:49:09.673Z,4.73
2017-09-04T20:51:37.249Z,4.90
2017-09-04T20:54:04.805Z,4.93
2017-09-04T20:56:32.342Z,4.20
2017-09-04T20:58:59.886Z,4.07
2017-09-04T21:01:28.228Z,3.83
2017-09-04T21:03:55.769Z,4.50
2017-09-04T21:06:23.326Z,3.97
2017-09-04T21:08:50.926Z,4.10
2017-09-04T21:11:18.489Z,4.23
2017-09-04T21:13:46.026Z,3.90
2017-09-04T21:16:13.603Z,3.70
2017-09-04T21:18:41.136Z,4.77
2017-09-04T21:21:08.683Z,4.23
2017-09-04T21:23:36.245Z,4.67
2017-09-04T21:26:03.794Z,3.97
2017-09-04T21:28:31.325Z,4.17
2017-09-04T21:30:58.890Z,4.00
2017-09-04T21:33:26.422Z,3.83
2017-09-04T21:35:53.953Z,4.03
2017-09-04T21:38:21.534Z,3.77
2017-09-04T21:40:49.069Z,4.40
2017-09-04T21:43:16.615Z,4.47
2017-09-04T21:45:44.192Z,3.70
2017-09-04T21:48:11.744Z,3.90
2017-09-04T21:50:39.273Z,3.90
2017-09-04T21:53:06.860Z,4.47
2017-09-04T21:55:34.407Z,5.10
2017-09-04T21:58:01.950Z,4.20
2017-09-04T22:00:29.528Z,4.43
2017-09-04T22:02:57.069Z,4.60
2017-09-04T22:05:24.598Z,4.70
2017-09-04T22:07:52.156Z,5.00
2017-09-04T22:10:19.695Z,5.07
2017-09-04T22:12:48.015Z,4.53
2017-09-04T22:15:15.577Z,4.50
2017-09-04T22:17:43.128Z,4.80
2017-09-04T22:20:10.679Z,4.90
2017-09-04T22:22:38.233Z,4.17
2017-09-04T22:25:05.783Z,3.87
2017-09-04T22:27:33.345Z,4.10
2017-09-04T22:30:00.913Z,4.20
2017-09-04T22:32:28.441Z,5.67
2017-09-04T22:34:55.978Z,4.23
2017-09-04T22:37:23.544Z,3.83
2017-09-04T22:39:51.091Z,3.73
2017-09-04T22:42:18.613Z,3.93
2017-09-04T22:44:46.175Z,4.17
2017-09-04T22:47:13.727Z,4.77
2017-09-04T22:49:41.276Z,3.73
2017-09-04T22:52:08.863Z,3.53
2017-09-04T22:54:36.436Z,3.43
2017-09-04T22:57:03.964Z,3.73
2017-09-04T22:59:31.525Z,4.00
2017-09-04T23:01:59.076Z,4.23
2017-09-04T23:04:26.616Z,4.27
2017-09-04T23:06:54.173Z,4.50
2017-09-04T23:09:21.725Z,4.27
2017-09-04T23:11:49.276Z,4.63
2017-09-04T23:14:16.833Z,5.00
2017-09-04T23:16:44.360Z,4.73
2017-09-04T23:19:11.893Z,5.00
2017-09-04T23:21:39.453Z,5.10
2017-09-04T23:24:06.994Z,5.27
2017-09-04T23:26:34.524Z,5.07
2017-09-04T23:29:02.085Z,5.07
2017-09-04T23:31:30.396Z,5.27
2017-09-04T23:33:57.948Z,5.30
2017-09-04T23:36:25.512Z,4.93
2017-09-04T23:38:53.066Z,5.70
2017-09-04T23:41:20.602Z,5.77
2017-09-04T23:43:48.183Z,5.67
2017-09-04T23:46:15.727Z,5.93
2017-09-04T23:48:43.256Z,5.73
2017-09-04T23:51:10.816Z,5.40
2017-09-04T23:53:38.348Z,5.30
2017-09-04T23:56:05.889Z,5.00
2017-09-04T23:58:33.466Z,6.40
